Main page
METAR-TAF:

METAR-TAF

Airports :

Illinois Valley Regional Airport

Peru / LaSalle, Illinois, United States

latitude: 41-21-07N, longitude: 089-09-11W, elevation: 653 ft

Current weather observation

The report was made 11 minutes ago, at 22:15 UTC
Wind 10 mph from the Northwest
Temperature 23°F
Humidity 38%
Pressure 30.70 in. Hg
Visibility: 10 miles
Clear sky

METAR: KVYS 202215Z AUTO 32009KT 10SM CLR M05/M17 A3070 RMK AO2 T10521173

Time: 16:26 (22:26 UTC)


TAF: missing

Weather observations and forecasts of more than 4000 airports (METAR and TAF reports).

The available stations are represented by yellow and red dots on the map.

Hover mouse over dot to see the name of the station.

Then click to see weather observations and forecasts.

To change the map : click on the green buttons with a black cross to zoom in, on the green button with a dash to zoom out, or on the green arrows for adjacent maps.


METAR-TAF: